sensor_id;sensor_type;location;lat;lon;timestamp;temperature;humidity
418;DHT22;49;48.530;9.200;2022-09-09T00:00:19;22.30;34.60
418;DHT22;49;48.530;9.200;2022-09-09T00:02:52;22.10;35.20
418;DHT22;49;48.530;9.200;2022-09-09T00:05:26;21.80;42.80
418;DHT22;49;48.530;9.200;2022-09-09T00:07:59;21.70;37.60
418;DHT22;49;48.530;9.200;2022-09-09T00:10:33;21.60;32.90
418;DHT22;49;48.530;9.200;2022-09-09T00:13:09;21.40;35.80
418;DHT22;49;48.530;9.200;2022-09-09T00:15:46;21.20;39.50
418;DHT22;49;48.530;9.200;2022-09-09T00:18:22;21.10;38.90
418;DHT22;49;48.530;9.200;2022-09-09T00:20:55;21.10;42.20
418;DHT22;49;48.530;9.200;2022-09-09T00:23:25;21.30;40.20
418;DHT22;49;48.530;9.200;2022-09-09T00:26:01;21.60;41.40
418;DHT22;49;48.530;9.200;2022-09-09T00:28:32;21.60;42.40
418;DHT22;49;48.530;9.200;2022-09-09T00:31:04;21.70;43.20
418;DHT22;49;48.530;9.200;2022-09-09T00:33:35;22.00;43.50
418;DHT22;49;48.530;9.200;2022-09-09T00:36:02;22.10;40.70
418;DHT22;49;48.530;9.200;2022-09-09T00:38:33;22.00;35.30
418;DHT22;49;48.530;9.200;2022-09-09T00:41:07;21.30;35.60
418;DHT22;49;48.530;9.200;2022-09-09T00:43:38;21.10;44.20
418;DHT22;49;48.530;9.200;2022-09-09T00:46:32;20.90;36.40
418;DHT22;49;48.530;9.200;2022-09-09T00:49:09;20.90;38.10
418;DHT22;49;48.530;9.200;2022-09-09T00:51:48;21.00;41.20
418;DHT22;49;48.530;9.200;2022-09-09T00:54:27;20.70;36.80
418;DHT22;49;48.530;9.200;2022-09-09T00:57:05;20.60;39.20
418;DHT22;49;48.530;9.200;2022-09-09T00:59:42;20.70;37.80
418;DHT22;49;48.530;9.200;2022-09-09T01:02:18;20.10;40.90
418;DHT22;49;48.530;9.200;2022-09-09T01:04:48;19.60;42.70
418;DHT22;49;48.530;9.200;2022-09-09T01:07:17;19.40;51.20
418;DHT22;49;48.530;9.200;2022-09-09T01:09:52;20.00;44.70
418;DHT22;49;48.530;9.200;2022-09-09T01:12:29;20.30;41.80
418;DHT22;49;48.530;9.200;2022-09-09T01:15:08;20.90;48.80
418;DHT22;49;48.530;9.200;2022-09-09T01:17:44;20.80;39.30
418;DHT22;49;48.530;9.200;2022-09-09T01:20:15;21.20;49.80
418;DHT22;49;48.530;9.200;2022-09-09T01:22:51;21.20;40.30
418;DHT22;49;48.530;9.200;2022-09-09T01:28:16;20.40;41.20
418;DHT22;49;48.530;9.200;2022-09-09T01:30:45;20.20;42.40
418;DHT22;49;48.530;9.200;2022-09-09T01:33:14;20.40;40.20
418;DHT22;49;48.530;9.200;2022-09-09T01:35:46;20.20;39.70
418;DHT22;49;48.530;9.200;2022-09-09T01:38:16;20.20;41.50
418;DHT22;49;48.530;9.200;2022-09-09T01:40:44;20.40;42.80
418;DHT22;49;48.530;9.200;2022-09-09T01:43:11;20.30;40.60
418;DHT22;49;48.530;9.200;2022-09-09T01:45:39;20.60;44.30
418;DHT22;49;48.530;9.200;2022-09-09T01:48:07;21.10;52.00
418;DHT22;49;48.530;9.200;2022-09-09T01:50:34;21.40;49.90
418;DHT22;49;48.530;9.200;2022-09-09T01:53:01;21.60;47.10
418;DHT22;49;48.530;9.200;2022-09-09T01:55:30;21.50;41.40
418;DHT22;49;48.530;9.200;2022-09-09T01:58:10;21.30;43.40
418;DHT22;49;48.530;9.200;2022-09-09T02:00:44;21.20;45.60
418;DHT22;49;48.530;9.200;2022-09-09T02:03:20;21.30;46.60
418;DHT22;49;48.530;9.200;2022-09-09T02:05:52;21.20;42.10
418;DHT22;49;48.530;9.200;2022-09-09T02:08:25;21.40;45.80
418;DHT22;49;48.530;9.200;2022-09-09T02:10:56;21.30;44.50
418;DHT22;49;48.530;9.200;2022-09-09T02:13:26;21.40;46.50
418;DHT22;49;48.530;9.200;2022-09-09T02:15:57;21.30;43.00
418;DHT22;49;48.530;9.200;2022-09-09T02:18:29;21.30;44.30
418;DHT22;49;48.530;9.200;2022-09-09T02:20:59;21.30;45.70
418;DHT22;49;48.530;9.200;2022-09-09T02:23:28;21.40;45.30
418;DHT22;49;48.530;9.200;2022-09-09T02:25:55;21.40;39.00
418;DHT22;49;48.530;9.200;2022-09-09T02:28:25;21.00;36.80
418;DHT22;49;48.530;9.200;2022-09-09T02:30:54;20.90;41.20
418;DHT22;49;48.530;9.200;2022-09-09T02:33:24;20.90;46.60
418;DHT22;49;48.530;9.200;2022-09-09T02:35:53;21.20;41.80
418;DHT22;49;48.530;9.200;2022-09-09T02:38:29;21.20;45.80
418;DHT22;49;48.530;9.200;2022-09-09T02:40:57;21.00;40.10
418;DHT22;49;48.530;9.200;2022-09-09T02:43:24;21.10;43.90
418;DHT22;49;48.530;9.200;2022-09-09T02:45:57;21.20;43.00
418;DHT22;49;48.530;9.200;2022-09-09T02:48:32;21.60;46.00
418;DHT22;49;48.530;9.200;2022-09-09T02:51:04;21.80;43.00
418;DHT22;49;48.530;9.200;2022-09-09T02:53:38;21.50;40.80
418;DHT22;49;48.530;9.200;2022-09-09T02:56:09;21.20;37.40
418;DHT22;49;48.530;9.200;2022-09-09T02:58:37;20.80;37.00
418;DHT22;49;48.530;9.200;2022-09-09T03:01:06;21.10;43.40
418;DHT22;49;48.530;9.200;2022-09-09T03:03:34;21.50;46.50
418;DHT22;49;48.530;9.200;2022-09-09T03:06:01;21.60;45.20
418;DHT22;49;48.530;9.200;2022-09-09T03:08:28;21.80;42.00
418;DHT22;49;48.530;9.200;2022-09-09T03:10:55;21.60;37.50
418;DHT22;49;48.530;9.200;2022-09-09T03:13:26;21.40;41.00
418;DHT22;49;48.530;9.200;2022-09-09T03:15:53;21.50;44.70
418;DHT22;49;48.530;9.200;2022-09-09T03:18:21;21.60;45.10
418;DHT22;49;48.530;9.200;2022-09-09T03:20:48;21.80;44.70
418;DHT22;49;48.530;9.200;2022-09-09T03:23:16;21.80;38.90
418;DHT22;49;48.530;9.200;2022-09-09T03:25:47;21.50;38.60
418;DHT22;49;48.530;9.200;2022-09-09T03:28:14;21.40;38.80
418;DHT22;49;48.530;9.200;2022-09-09T03:30:41;20.90;36.20
418;DHT22;49;48.530;9.200;2022-09-09T03:33:08;20.60;37.80
418;DHT22;49;48.530;9.200;2022-09-09T03:35:36;20.20;43.10
418;DHT22;49;48.530;9.200;2022-09-09T03:38:03;20.40;43.20
418;DHT22;49;48.530;9.200;2022-09-09T03:40:29;20.30;38.00
418;DHT22;49;48.530;9.200;2022-09-09T03:42:57;20.40;40.50
418;DHT22;49;48.530;9.200;2022-09-09T03:45:24;20.80;41.20
418;DHT22;49;48.530;9.200;2022-09-09T03:47:50;20.80;43.50
418;DHT22;49;48.530;9.200;2022-09-09T03:50:17;21.10;40.00
418;DHT22;49;48.530;9.200;2022-09-09T03:52:45;21.30;45.30
418;DHT22;49;48.530;9.200;2022-09-09T03:55:13;21.60;45.20
418;DHT22;49;48.530;9.200;2022-09-09T03:57:39;21.70;40.10
418;DHT22;49;48.530;9.200;2022-09-09T04:00:08;21.60;43.10
418;DHT22;49;48.530;9.200;2022-09-09T04:02:35;21.70;41.80
418;DHT22;49;48.530;9.200;2022-09-09T04:05:02;21.90;42.40
418;DHT22;49;48.530;9.200;2022-09-09T04:07:28;22.00;41.00
418;DHT22;49;48.530;9.200;2022-09-09T04:09:57;21.80;39.00
418;DHT22;49;48.530;9.200;2022-09-09T04:12:23;21.70;36.80
418;DHT22;49;48.530;9.200;2022-09-09T04:14:50;21.60;41.00
418;DHT22;49;48.530;9.200;2022-09-09T04:17:17;21.70;41.80
418;DHT22;49;48.530;9.200;2022-09-09T04:19:44;21.80;41.10
418;DHT22;49;48.530;9.200;2022-09-09T04:22:12;21.60;40.90
418;DHT22;49;48.530;9.200;2022-09-09T04:24:38;21.40;38.10
418;DHT22;49;48.530;9.200;2022-09-09T04:27:07;21.40;42.20
418;DHT22;49;48.530;9.200;2022-09-09T04:29:33;21.30;36.30
418;DHT22;49;48.530;9.200;2022-09-09T04:32:00;21.10;35.60
418;DHT22;49;48.530;9.200;2022-09-09T04:34:27;21.00;39.90
418;DHT22;49;48.530;9.200;2022-09-09T04:36:55;20.80;42.50
418;DHT22;49;48.530;9.200;2022-09-09T04:39:22;20.70;40.00
418;DHT22;49;48.530;9.200;2022-09-09T04:41:49;20.80;44.00
418;DHT22;49;48.530;9.200;2022-09-09T04:44:17;20.70;42.60
418;DHT22;49;48.530;9.200;2022-09-09T04:46:44;20.50;42.20
418;DHT22;49;48.530;9.200;2022-09-09T04:49:11;20.40;43.80
418;DHT22;49;48.530;9.200;2022-09-09T04:51:37;20.60;45.10
418;DHT22;49;48.530;9.200;2022-09-09T04:54:04;20.60;42.00
418;DHT22;49;48.530;9.200;2022-09-09T04:56:31;20.60;45.70
418;DHT22;49;48.530;9.200;2022-09-09T04:58:58;20.90;47.10
418;DHT22;49;48.530;9.200;2022-09-09T05:01:27;21.10;45.50
418;DHT22;49;48.530;9.200;2022-09-09T05:03:53;21.10;44.40
418;DHT22;49;48.530;9.200;2022-09-09T05:06:21;21.00;44.40
418;DHT22;49;48.530;9.200;2022-09-09T05:08:48;20.90;45.40
418;DHT22;49;48.530;9.200;2022-09-09T05:11:17;21.00;43.50
418;DHT22;49;48.530;9.200;2022-09-09T05:13:44;20.90;43.60
418;DHT22;49;48.530;9.200;2022-09-09T05:16:11;21.10;46.40
418;DHT22;49;48.530;9.200;2022-09-09T05:18:40;21.20;42.70
418;DHT22;49;48.530;9.200;2022-09-09T05:21:08;21.20;45.40
418;DHT22;49;48.530;9.200;2022-09-09T05:23:35;21.20;44.80
418;DHT22;49;48.530;9.200;2022-09-09T05:26:03;21.20;43.50
418;DHT22;49;48.530;9.200;2022-09-09T05:28:30;21.30;45.20
418;DHT22;49;48.530;9.200;2022-09-09T05:30:58;21.60;43.70
418;DHT22;49;48.530;9.200;2022-09-09T05:33:28;21.90;42.40
418;DHT22;49;48.530;9.200;2022-09-09T05:35:57;22.10;41.80
418;DHT22;49;48.530;9.200;2022-09-09T05:38:24;22.40;38.40
418;DHT22;49;48.530;9.200;2022-09-09T05:40:52;22.20;36.50
418;DHT22;49;48.530;9.200;2022-09-09T05:43:19;22.00;36.80
418;DHT22;49;48.530;9.200;2022-09-09T05:45:46;21.60;37.40
418;DHT22;49;48.530;9.200;2022-09-09T05:48:13;21.50;41.00
418;DHT22;49;48.530;9.200;2022-09-09T05:50:41;21.80;41.50
418;DHT22;49;48.530;9.200;2022-09-09T05:53:10;21.90;40.90
418;DHT22;49;48.530;9.200;2022-09-09T05:55:36;22.00;39.50
418;DHT22;49;48.530;9.200;2022-09-09T05:58:03;21.80;39.60
418;DHT22;49;48.530;9.200;2022-09-09T06:00:30;21.80;38.90
418;DHT22;49;48.530;9.200;2022-09-09T06:02:58;21.60;40.60
418;DHT22;49;48.530;9.200;2022-09-09T06:05:25;21.60;40.50
418;DHT22;49;48.530;9.200;2022-09-09T06:07:54;21.90;42.80
418;DHT22;49;48.530;9.200;2022-09-09T06:10:22;22.10;39.10
418;DHT22;49;48.530;9.200;2022-09-09T06:12:52;22.10;38.80
418;DHT22;49;48.530;9.200;2022-09-09T06:15:19;22.00;39.10
418;DHT22;49;48.530;9.200;2022-09-09T06:17:46;21.80;38.90
418;DHT22;49;48.530;9.200;2022-09-09T06:20:14;22.00;38.70
418;DHT22;49;48.530;9.200;2022-09-09T06:22:41;22.20;38.80
418;DHT22;49;48.530;9.200;2022-09-09T06:25:08;22.40;38.10
418;DHT22;49;48.530;9.200;2022-09-09T06:27:37;22.60;36.60
418;DHT22;49;48.530;9.200;2022-09-09T06:30:05;23.00;35.90
418;DHT22;49;48.530;9.200;2022-09-09T06:32:33;23.10;35.80
418;DHT22;49;48.530;9.200;2022-09-09T06:35:03;23.30;35.30
418;DHT22;49;48.530;9.200;2022-09-09T06:37:30;23.50;35.50
418;DHT22;49;48.530;9.200;2022-09-09T06:39:57;24.20;34.60
418;DHT22;49;48.530;9.200;2022-09-09T06:42:24;24.90;35.30
418;DHT22;49;48.530;9.200;2022-09-09T06:44:53;25.60;28.70
418;DHT22;49;48.530;9.200;2022-09-09T06:47:19;26.00;29.60
418;DHT22;49;48.530;9.200;2022-09-09T06:49:46;26.30;27.70
418;DHT22;49;48.530;9.200;2022-09-09T06:52:13;26.80;27.00
418;DHT22;49;48.530;9.200;2022-09-09T06:54:40;27.10;26.10
418;DHT22;49;48.530;9.200;2022-09-09T06:57:07;27.30;24.70
418;DHT22;49;48.530;9.200;2022-09-09T06:59:34;27.00;24.70
418;DHT22;49;48.530;9.200;2022-09-09T07:02:03;26.10;26.40
418;DHT22;49;48.530;9.200;2022-09-09T07:04:31;25.40;28.50
418;DHT22;49;48.530;9.200;2022-09-09T07:06:58;25.00;29.30
418;DHT22;49;48.530;9.200;2022-09-09T07:09:26;24.90;29.90
418;DHT22;49;48.530;9.200;2022-09-09T07:11:55;24.90;29.00
418;DHT22;49;48.530;9.200;2022-09-09T07:14:23;24.60;29.30
418;DHT22;49;48.530;9.200;2022-09-09T07:16:53;24.60;29.80
418;DHT22;49;48.530;9.200;2022-09-09T07:19:21;24.30;31.00
418;DHT22;49;48.530;9.200;2022-09-09T07:21:49;24.60;30.80
418;DHT22;49;48.530;9.200;2022-09-09T07:24:16;24.80;30.00
418;DHT22;49;48.530;9.200;2022-09-09T07:26:43;24.70;30.00
418;DHT22;49;48.530;9.200;2022-09-09T07:29:11;24.70;30.40
418;DHT22;49;48.530;9.200;2022-09-09T07:31:41;24.20;31.20
418;DHT22;49;48.530;9.200;2022-09-09T07:34:08;24.40;32.90
418;DHT22;49;48.530;9.200;2022-09-09T07:36:39;25.10;30.60
418;DHT22;49;48.530;9.200;2022-09-09T07:39:09;26.10;28.10
418;DHT22;49;48.530;9.200;2022-09-09T07:41:38;27.20;24.90
418;DHT22;49;48.530;9.200;2022-09-09T07:44:10;27.60;24.40
418;DHT22;49;48.530;9.200;2022-09-09T07:46:38;27.50;24.70
418;DHT22;49;48.530;9.200;2022-09-09T07:49:06;28.00;23.80
418;DHT22;49;48.530;9.200;2022-09-09T07:51:36;28.60;22.80
418;DHT22;49;48.530;9.200;2022-09-09T07:54:05;28.80;22.10
418;DHT22;49;48.530;9.200;2022-09-09T07:56:33;27.60;24.20
418;DHT22;49;48.530;9.200;2022-09-09T07:59:01;27.20;25.10
418;DHT22;49;48.530;9.200;2022-09-09T08:01:31;26.70;25.40
418;DHT22;49;48.530;9.200;2022-09-09T08:04:01;25.90;27.20
418;DHT22;49;48.530;9.200;2022-09-09T08:06:30;26.00;27.80
418;DHT22;49;48.530;9.200;2022-09-09T08:08:59;26.60;27.40
418;DHT22;49;48.530;9.200;2022-09-09T08:11:28;27.20;25.60
418;DHT22;49;48.530;9.200;2022-09-09T08:13:56;28.30;24.10
418;DHT22;49;48.530;9.200;2022-09-09T08:16:25;29.50;21.70
418;DHT22;49;48.530;9.200;2022-09-09T08:18:52;30.40;19.50
418;DHT22;49;48.530;9.200;2022-09-09T08:21:22;30.60;19.00
418;DHT22;49;48.530;9.200;2022-09-09T08:23:51;29.50;20.10
418;DHT22;49;48.530;9.200;2022-09-09T08:26:21;28.40;21.70
418;DHT22;49;48.530;9.200;2022-09-09T08:28:49;27.60;22.90
418;DHT22;49;48.530;9.200;2022-09-09T08:31:19;26.90;24.50
418;DHT22;49;48.530;9.200;2022-09-09T08:33:46;27.20;24.50
418;DHT22;49;48.530;9.200;2022-09-09T08:36:16;27.10;24.10
418;DHT22;49;48.530;9.200;2022-09-09T08:38:46;27.40;23.80
418;DHT22;49;48.530;9.200;2022-09-09T08:41:36;27.10;25.40
418;DHT22;49;48.530;9.200;2022-09-09T08:44:07;26.80;25.60
418;DHT22;49;48.530;9.200;2022-09-09T08:46:42;27.10;24.30
418;DHT22;49;48.530;9.200;2022-09-09T08:49:23;26.90;24.20
418;DHT22;49;48.530;9.200;2022-09-09T08:51:56;27.10;23.80
418;DHT22;49;48.530;9.200;2022-09-09T08:54:28;27.30;23.30
418;DHT22;49;48.530;9.200;2022-09-09T08:56:59;27.30;23.40
418;DHT22;49;48.530;9.200;2022-09-09T08:59:26;25.90;25.60
418;DHT22;49;48.530;9.200;2022-09-09T09:02:00;24.60;27.50
418;DHT22;49;48.530;9.200;2022-09-09T09:04:39;23.80;29.90
418;DHT22;49;48.530;9.200;2022-09-09T09:07:16;23.30;32.80
418;DHT22;49;48.530;9.200;2022-09-09T09:09:53;23.90;30.70
418;DHT22;49;48.530;9.200;2022-09-09T09:12:28;24.50;28.70
418;DHT22;49;48.530;9.200;2022-09-09T09:14:56;25.10;27.50
418;DHT22;49;48.530;9.200;2022-09-09T09:17:26;25.10;26.30
418;DHT22;49;48.530;9.200;2022-09-09T09:19:58;25.20;27.00
418;DHT22;49;48.530;9.200;2022-09-09T09:22:32;25.50;25.40
418;DHT22;49;48.530;9.200;2022-09-09T09:25:05;24.80;26.40
418;DHT22;49;48.530;9.200;2022-09-09T09:27:42;25.00;27.50
418;DHT22;49;48.530;9.200;2022-09-09T09:30:15;25.40;26.70
418;DHT22;49;48.530;9.200;2022-09-09T09:32:51;26.10;25.00
418;DHT22;49;48.530;9.200;2022-09-09T09:35:20;26.30;24.10
418;DHT22;49;48.530;9.200;2022-09-09T09:37:47;26.00;24.40
418;DHT22;49;48.530;9.200;2022-09-09T09:40:16;26.20;24.00
418;DHT22;49;48.530;9.200;2022-09-09T09:42:54;25.10;24.80
418;DHT22;49;48.530;9.200;2022-09-09T09:45:27;24.60;26.50
418;DHT22;49;48.530;9.200;2022-09-09T09:47:59;24.40;26.30
418;DHT22;49;48.530;9.200;2022-09-09T09:50:28;25.00;25.80
418;DHT22;49;48.530;9.200;2022-09-09T09:52:56;24.90;27.50
418;DHT22;49;48.530;9.200;2022-09-09T09:55:25;25.50;25.60
418;DHT22;49;48.530;9.200;2022-09-09T09:58:05;25.90;22.70
418;DHT22;49;48.530;9.200;2022-09-09T10:00:33;26.50;22.30
418;DHT22;49;48.530;9.200;2022-09-09T10:03:01;26.50;22.30
418;DHT22;49;48.530;9.200;2022-09-09T10:05:29;26.30;22.80
418;DHT22;49;48.530;9.200;2022-09-09T10:08:10;26.10;22.10
418;DHT22;49;48.530;9.200;2022-09-09T10:10:46;26.00;22.10
418;DHT22;49;48.530;9.200;2022-09-09T10:13:25;25.70;25.30
418;DHT22;49;48.530;9.200;2022-09-09T10:16:09;25.40;24.50
418;DHT22;49;48.530;9.200;2022-09-09T10:18:47;24.90;24.80
418;DHT22;49;48.530;9.200;2022-09-09T10:21:26;24.30;24.90
418;DHT22;49;48.530;9.200;2022-09-09T10:24:07;24.00;24.90
418;DHT22;49;48.530;9.200;2022-09-09T10:26:43;23.90;25.30
418;DHT22;49;48.530;9.200;2022-09-09T10:29:31;24.70;23.80
418;DHT22;49;48.530;9.200;2022-09-09T10:32:17;25.40;22.50
418;DHT22;49;48.530;9.200;2022-09-09T10:34:55;25.20;23.30
418;DHT22;49;48.530;9.200;2022-09-09T10:37:37;25.30;23.50
418;DHT22;49;48.530;9.200;2022-09-09T10:40:23;26.10;22.90
418;DHT22;49;48.530;9.200;2022-09-09T10:43:00;26.60;21.30
418;DHT22;49;48.530;9.200;2022-09-09T10:45:42;25.40;21.00
418;DHT22;49;48.530;9.200;2022-09-09T10:48:28;24.70;21.80
418;DHT22;49;48.530;9.200;2022-09-09T10:51:07;24.60;22.20
418;DHT22;49;48.530;9.200;2022-09-09T10:53:49;24.50;21.80
418;DHT22;49;48.530;9.200;2022-09-09T10:56:20;25.30;21.70
418;DHT22;49;48.530;9.200;2022-09-09T10:58:51;26.00;21.30
418;DHT22;49;48.530;9.200;2022-09-09T11:01:25;26.20;20.80
418;DHT22;49;48.530;9.200;2022-09-09T11:03:57;25.50;19.30
418;DHT22;49;48.530;9.200;2022-09-09T11:06:31;25.10;20.90
418;DHT22;49;48.530;9.200;2022-09-09T11:09:00;25.40;20.70
418;DHT22;49;48.530;9.200;2022-09-09T11:11:32;25.80;20.00
418;DHT22;49;48.530;9.200;2022-09-09T11:14:05;26.10;19.10
418;DHT22;49;48.530;9.200;2022-09-09T11:16:42;26.00;19.70
418;DHT22;49;48.530;9.200;2022-09-09T11:19:15;25.50;20.60
418;DHT22;49;48.530;9.200;2022-09-09T11:21:46;25.70;20.60
418;DHT22;49;48.530;9.200;2022-09-09T11:24:22;25.70;20.50
418;DHT22;49;48.530;9.200;2022-09-09T11:26:53;25.70;21.00
418;DHT22;49;48.530;9.200;2022-09-09T11:29:42;26.50;19.60
418;DHT22;49;48.530;9.200;2022-09-09T11:32:26;25.80;21.50
418;DHT22;49;48.530;9.200;2022-09-09T11:35:03;25.20;22.70
418;DHT22;49;48.530;9.200;2022-09-09T11:38:03;24.90;23.20
418;DHT22;49;48.530;9.200;2022-09-09T11:40:32;24.70;23.30
418;DHT22;49;48.530;9.200;2022-09-09T11:43:03;25.20;22.90
418;DHT22;49;48.530;9.200;2022-09-09T11:45:34;25.10;22.50
418;DHT22;49;48.530;9.200;2022-09-09T11:48:04;25.00;23.40
418;DHT22;49;48.530;9.200;2022-09-09T11:50:36;25.00;21.90
418;DHT22;49;48.530;9.200;2022-09-09T11:53:22;25.10;22.30
418;DHT22;49;48.530;9.200;2022-09-09T11:56:09;25.10;21.50
418;DHT22;49;48.530;9.200;2022-09-09T11:58:55;25.70;20.30
418;DHT22;49;48.530;9.200;2022-09-09T12:01:34;26.00;18.70
418;DHT22;49;48.530;9.200;2022-09-09T12:04:30;26.00;18.80
418;DHT22;49;48.530;9.200;2022-09-09T12:07:04;26.20;17.00
418;DHT22;49;48.530;9.200;2022-09-09T12:09:46;26.20;16.60
418;DHT22;49;48.530;9.200;2022-09-09T12:12:32;26.00;17.70
418;DHT22;49;48.530;9.200;2022-09-09T12:15:24;25.70;18.00
418;DHT22;49;48.530;9.200;2022-09-09T12:17:55;25.40;21.20
418;DHT22;49;48.530;9.200;2022-09-09T12:20:34;25.60;17.90
418;DHT22;49;48.530;9.200;2022-09-09T12:23:13;25.30;19.70
418;DHT22;49;48.530;9.200;2022-09-09T12:25:53;25.80;18.90
418;DHT22;49;48.530;9.200;2022-09-09T12:28:25;25.80;18.50
418;DHT22;49;48.530;9.200;2022-09-09T12:30:58;25.90;18.00
418;DHT22;49;48.530;9.200;2022-09-09T12:33:34;26.10;21.00
418;DHT22;49;48.530;9.200;2022-09-09T12:36:04;26.00;21.40
418;DHT22;49;48.530;9.200;2022-09-09T12:38:36;26.20;19.50
418;DHT22;49;48.530;9.200;2022-09-09T12:41:03;26.60;18.80
418;DHT22;49;48.530;9.200;2022-09-09T12:43:30;26.70;19.90
418;DHT22;49;48.530;9.200;2022-09-09T12:46:00;26.70;19.00
418;DHT22;49;48.530;9.200;2022-09-09T12:48:32;25.80;21.30
418;DHT22;49;48.530;9.200;2022-09-09T12:51:00;25.80;20.90
418;DHT22;49;48.530;9.200;2022-09-09T12:53:32;25.80;20.20
418;DHT22;49;48.530;9.200;2022-09-09T12:56:03;25.70;20.00
418;DHT22;49;48.530;9.200;2022-09-09T12:58:33;25.60;21.80
418;DHT22;49;48.530;9.200;2022-09-09T13:01:02;25.70;20.20
418;DHT22;49;48.530;9.200;2022-09-09T13:03:31;25.60;19.50
418;DHT22;49;48.530;9.200;2022-09-09T13:06:09;25.70;19.70
418;DHT22;49;48.530;9.200;2022-09-09T13:08:38;26.00;19.30
418;DHT22;49;48.530;9.200;2022-09-09T13:11:09;26.20;18.80
418;DHT22;49;48.530;9.200;2022-09-09T13:13:40;26.30;19.20
418;DHT22;49;48.530;9.200;2022-09-09T13:16:19;26.20;18.30
418;DHT22;49;48.530;9.200;2022-09-09T13:18:46;26.30;19.40
418;DHT22;49;48.530;9.200;2022-09-09T13:21:13;26.00;17.70
418;DHT22;49;48.530;9.200;2022-09-09T13:23:42;26.40;17.30
418;DHT22;49;48.530;9.200;2022-09-09T13:26:22;26.40;16.20
418;DHT22;49;48.530;9.200;2022-09-09T13:28:49;26.00;18.40
418;DHT22;49;48.530;9.200;2022-09-09T13:31:22;26.20;21.00
418;DHT22;49;48.530;9.200;2022-09-09T13:33:49;26.30;20.20
418;DHT22;49;48.530;9.200;2022-09-09T13:36:28;26.10;18.40
418;DHT22;49;48.530;9.200;2022-09-09T13:38:57;25.90;20.30
418;DHT22;49;48.530;9.200;2022-09-09T13:41:29;25.50;20.10
418;DHT22;49;48.530;9.200;2022-09-09T13:43:58;25.20;20.40
418;DHT22;49;48.530;9.200;2022-09-09T13:46:30;25.30;21.50
418;DHT22;49;48.530;9.200;2022-09-09T13:48:58;25.20;20.10
418;DHT22;49;48.530;9.200;2022-09-09T13:51:36;25.20;22.20
418;DHT22;49;48.530;9.200;2022-09-09T13:54:05;25.40;22.10
418;DHT22;49;48.530;9.200;2022-09-09T13:56:33;25.30;21.70
418;DHT22;49;48.530;9.200;2022-09-09T13:59:00;25.30;20.30
418;DHT22;49;48.530;9.200;2022-09-09T14:01:27;25.20;20.80
418;DHT22;49;48.530;9.200;2022-09-09T14:03:55;25.20;19.70
418;DHT22;49;48.530;9.200;2022-09-09T14:06:22;25.50;20.80
418;DHT22;49;48.530;9.200;2022-09-09T14:08:50;25.70;19.10
418;DHT22;49;48.530;9.200;2022-09-09T14:11:18;26.00;18.30
418;DHT22;49;48.530;9.200;2022-09-09T14:13:47;26.00;18.20
418;DHT22;49;48.530;9.200;2022-09-09T14:16:15;25.60;17.80
418;DHT22;49;48.530;9.200;2022-09-09T14:18:43;25.70;18.10
418;DHT22;49;48.530;9.200;2022-09-09T14:21:11;25.90;17.80
418;DHT22;49;48.530;9.200;2022-09-09T14:23:38;25.70;18.00
418;DHT22;49;48.530;9.200;2022-09-09T14:26:06;25.60;18.00
418;DHT22;49;48.530;9.200;2022-09-09T14:28:35;25.70;18.60
418;DHT22;49;48.530;9.200;2022-09-09T14:31:04;25.70;18.70
418;DHT22;49;48.530;9.200;2022-09-09T14:33:31;25.70;18.40
418;DHT22;49;48.530;9.200;2022-09-09T14:35:59;25.70;19.30
418;DHT22;49;48.530;9.200;2022-09-09T14:38:28;25.80;19.00
418;DHT22;49;48.530;9.200;2022-09-09T14:40:55;25.90;17.90
418;DHT22;49;48.530;9.200;2022-09-09T14:43:24;25.70;17.80
418;DHT22;49;48.530;9.200;2022-09-09T14:45:53;25.80;17.10
418;DHT22;49;48.530;9.200;2022-09-09T14:48:20;26.00;15.90
418;DHT22;49;48.530;9.200;2022-09-09T14:50:47;26.20;16.00
418;DHT22;49;48.530;9.200;2022-09-09T14:53:18;26.50;16.10
418;DHT22;49;48.530;9.200;2022-09-09T14:55:49;26.40;16.10
418;DHT22;49;48.530;9.200;2022-09-09T14:58:24;26.10;17.30
418;DHT22;49;48.530;9.200;2022-09-09T15:01:04;26.10;17.20
418;DHT22;49;48.530;9.200;2022-09-09T15:03:40;26.00;16.00
418;DHT22;49;48.530;9.200;2022-09-09T15:06:11;26.10;16.00
418;DHT22;49;48.530;9.200;2022-09-09T15:08:41;25.80;16.80
418;DHT22;49;48.530;9.200;2022-09-09T15:11:08;25.00;19.20
418;DHT22;49;48.530;9.200;2022-09-09T15:13:36;25.20;19.20
418;DHT22;49;48.530;9.200;2022-09-09T15:16:11;25.10;18.40
418;DHT22;49;48.530;9.200;2022-09-09T15:18:42;24.40;19.20
418;DHT22;49;48.530;9.200;2022-09-09T15:21:10;24.60;19.30
418;DHT22;49;48.530;9.200;2022-09-09T15:23:41;25.10;19.00
418;DHT22;49;48.530;9.200;2022-09-09T15:26:24;24.80;19.80
418;DHT22;49;48.530;9.200;2022-09-09T15:28:57;24.60;18.60
418;DHT22;49;48.530;9.200;2022-09-09T15:31:29;24.60;19.50
418;DHT22;49;48.530;9.200;2022-09-09T15:34:04;24.90;19.50
418;DHT22;49;48.530;9.200;2022-09-09T15:36:33;24.90;18.60
418;DHT22;49;48.530;9.200;2022-09-09T15:39:06;24.60;18.60
418;DHT22;49;48.530;9.200;2022-09-09T15:41:41;24.50;19.90
418;DHT22;49;48.530;9.200;2022-09-09T15:44:11;24.50;18.90
418;DHT22;49;48.530;9.200;2022-09-09T15:46:45;24.20;19.30
418;DHT22;49;48.530;9.200;2022-09-09T15:49:14;23.50;19.90
418;DHT22;49;48.530;9.200;2022-09-09T15:51:42;23.60;20.50
418;DHT22;49;48.530;9.200;2022-09-09T15:54:13;23.90;19.50
418;DHT22;49;48.530;9.200;2022-09-09T15:56:41;24.20;19.90
418;DHT22;49;48.530;9.200;2022-09-09T15:59:12;24.30;19.20
418;DHT22;49;48.530;9.200;2022-09-09T16:01:40;24.00;19.80
418;DHT22;49;48.530;9.200;2022-09-09T16:04:12;23.50;19.30
418;DHT22;49;48.530;9.200;2022-09-09T16:06:51;23.20;21.20
418;DHT22;49;48.530;9.200;2022-09-09T16:09:20;23.60;19.60
418;DHT22;49;48.530;9.200;2022-09-09T16:11:50;23.60;19.70
418;DHT22;49;48.530;9.200;2022-09-09T16:14:18;23.50;19.60
418;DHT22;49;48.530;9.200;2022-09-09T16:16:59;23.50;19.50
418;DHT22;49;48.530;9.200;2022-09-09T16:19:27;23.90;18.70
418;DHT22;49;48.530;9.200;2022-09-09T16:21:54;24.30;20.20
418;DHT22;49;48.530;9.200;2022-09-09T16:24:24;24.70;19.00
418;DHT22;49;48.530;9.200;2022-09-09T16:26:55;24.40;18.00
418;DHT22;49;48.530;9.200;2022-09-09T16:29:22;24.60;17.90
418;DHT22;49;48.530;9.200;2022-09-09T16:31:53;24.40;18.50
418;DHT22;49;48.530;9.200;2022-09-09T16:34:21;24.60;18.40
418;DHT22;49;48.530;9.200;2022-09-09T16:37:04;24.60;18.30
418;DHT22;49;48.530;9.200;2022-09-09T16:39:33;23.80;19.60
418;DHT22;49;48.530;9.200;2022-09-09T16:42:01;23.70;20.20
418;DHT22;49;48.530;9.200;2022-09-09T16:44:36;23.60;20.30
418;DHT22;49;48.530;9.200;2022-09-09T16:47:08;23.50;20.80
418;DHT22;49;48.530;9.200;2022-09-09T16:49:37;23.50;20.50
418;DHT22;49;48.530;9.200;2022-09-09T16:52:13;23.50;20.50
418;DHT22;49;48.530;9.200;2022-09-09T16:54:43;23.00;21.40
418;DHT22;49;48.530;9.200;2022-09-09T16:57:10;22.80;21.60
418;DHT22;49;48.530;9.200;2022-09-09T16:59:45;22.90;22.00
418;DHT22;49;48.530;9.200;2022-09-09T17:02:13;22.90;23.20
418;DHT22;49;48.530;9.200;2022-09-09T17:04:42;22.90;23.70
418;DHT22;49;48.530;9.200;2022-09-09T17:07:16;23.30;21.40
418;DHT22;49;48.530;9.200;2022-09-09T17:09:48;23.60;21.30
418;DHT22;49;48.530;9.200;2022-09-09T17:12:15;23.60;22.70
418;DHT22;49;48.530;9.200;2022-09-09T17:14:45;23.80;21.90
418;DHT22;49;48.530;9.200;2022-09-09T17:17:16;23.90;20.90
418;DHT22;49;48.530;9.200;2022-09-09T17:19:43;23.70;20.60